sensor_id;sensor_type;location;lat;lon;timestamp;temperature;humidity
35680;DHT22;21803;53.586;10.040;2022-11-20T00:00:51;18.80;47.00
35680;DHT22;21803;53.586;10.040;2022-11-20T00:03:17;18.80;47.00
35680;DHT22;21803;53.586;10.040;2022-11-20T00:05:43;18.80;47.00
35680;DHT22;21803;53.586;10.040;2022-11-20T00:08:09;18.80;47.00
35680;DHT22;21803;53.586;10.040;2022-11-20T00:10:41;18.80;47.00
35680;DHT22;21803;53.586;10.040;2022-11-20T00:13:07;18.80;47.00
35680;DHT22;21803;53.586;10.040;2022-11-20T00:15:33;18.90;47.00
35680;DHT22;21803;53.586;10.040;2022-11-20T00:17:59;18.80;47.00
35680;DHT22;21803;53.586;10.040;2022-11-20T00:20:24;18.80;47.00
35680;DHT22;21803;53.586;10.040;2022-11-20T00:22:50;18.80;47.00
35680;DHT22;21803;53.586;10.040;2022-11-20T00:25:16;18.80;47.00
35680;DHT22;21803;53.586;10.040;2022-11-20T00:27:42;18.80;47.00
35680;DHT22;21803;53.586;10.040;2022-11-20T00:30:08;18.80;47.00
35680;DHT22;21803;53.586;10.040;2022-11-20T00:32:33;18.80;47.00
35680;DHT22;21803;53.586;10.040;2022-11-20T00:34:59;18.80;47.00
35680;DHT22;21803;53.586;10.040;2022-11-20T00:37:25;18.80;47.60
35680;DHT22;21803;53.586;10.040;2022-11-20T00:39:50;18.80;47.00
35680;DHT22;21803;53.586;10.040;2022-11-20T00:42:15;18.80;47.60
35680;DHT22;21803;53.586;10.040;2022-11-20T00:44:41;18.80;47.00
35680;DHT22;21803;53.586;10.040;2022-11-20T00:47:06;18.80;47.00
35680;DHT22;21803;53.586;10.040;2022-11-20T00:49:32;18.80;47.00
35680;DHT22;21803;53.586;10.040;2022-11-20T00:51:57;18.80;47.00
35680;DHT22;21803;53.586;10.040;2022-11-20T00:54:23;18.80;47.00
35680;DHT22;21803;53.586;10.040;2022-11-20T00:56:48;18.80;47.00
35680;DHT22;21803;53.586;10.040;2022-11-20T00:59:14;18.80;47.00
35680;DHT22;21803;53.586;10.040;2022-11-20T01:01:39;18.80;47.00
35680;DHT22;21803;53.586;10.040;2022-11-20T01:04:05;18.80;47.00
35680;DHT22;21803;53.586;10.040;2022-11-20T01:06:33;18.80;47.00
35680;DHT22;21803;53.586;10.040;2022-11-20T01:09:02;18.80;47.00
35680;DHT22;21803;53.586;10.040;2022-11-20T01:11:31;18.80;47.00
35680;DHT22;21803;53.586;10.040;2022-11-20T01:13:58;18.80;47.00
35680;DHT22;21803;53.586;10.040;2022-11-20T01:16:29;18.80;47.00
35680;DHT22;21803;53.586;10.040;2022-11-20T01:18:57;18.80;47.00
35680;DHT22;21803;53.586;10.040;2022-11-20T01:21:29;18.80;47.00
35680;DHT22;21803;53.586;10.040;2022-11-20T01:23:55;18.80;47.00
35680;DHT22;21803;53.586;10.040;2022-11-20T01:26:24;18.80;47.00
35680;DHT22;21803;53.586;10.040;2022-11-20T01:28:49;18.80;47.00
35680;DHT22;21803;53.586;10.040;2022-11-20T01:31:20;18.80;47.00
35680;DHT22;21803;53.586;10.040;2022-11-20T01:33:48;18.80;46.90
35680;DHT22;21803;53.586;10.040;2022-11-20T01:36:15;18.80;47.00
35680;DHT22;21803;53.586;10.040;2022-11-20T01:38:41;18.80;47.00
35680;DHT22;21803;53.586;10.040;2022-11-20T01:41:08;18.80;46.90
35680;DHT22;21803;53.586;10.040;2022-11-20T01:43:34;18.80;46.90
35680;DHT22;21803;53.586;10.040;2022-11-20T01:46:16;18.70;46.80
35680;DHT22;21803;53.586;10.040;2022-11-20T01:49:25;18.80;46.90
35680;DHT22;21803;53.586;10.040;2022-11-20T01:51:58;18.80;47.00
35680;DHT22;21803;53.586;10.040;2022-11-20T01:54:30;18.80;46.90
35680;DHT22;21803;53.586;10.040;2022-11-20T01:56:57;18.80;46.90
35680;DHT22;21803;53.586;10.040;2022-11-20T01:59:26;18.70;46.80
35680;DHT22;21803;53.586;10.040;2022-11-20T02:01:53;18.80;46.90
35680;DHT22;21803;53.586;10.040;2022-11-20T02:04:20;18.80;46.90
35680;DHT22;21803;53.586;10.040;2022-11-20T02:07:15;18.70;46.90
35680;DHT22;21803;53.586;10.040;2022-11-20T02:09:41;18.80;46.90
35680;DHT22;21803;53.586;10.040;2022-11-20T02:12:06;18.70;46.80
35680;DHT22;21803;53.586;10.040;2022-11-20T02:14:52;18.80;46.90
35680;DHT22;21803;53.586;10.040;2022-11-20T02:17:17;18.70;46.90
35680;DHT22;21803;53.586;10.040;2022-11-20T02:19:43;18.80;47.00
35680;DHT22;21803;53.586;10.040;2022-11-20T02:22:17;18.70;46.90
35680;DHT22;21803;53.586;10.040;2022-11-20T02:24:45;18.60;46.80
35680;DHT22;21803;53.586;10.040;2022-11-20T02:27:13;18.70;46.80
35680;DHT22;21803;53.586;10.040;2022-11-20T02:29:48;18.80;46.90
35680;DHT22;21803;53.586;10.040;2022-11-20T02:32:29;18.80;46.90
35680;DHT22;21803;53.586;10.040;2022-11-20T02:34:55;18.80;46.80
35680;DHT22;21803;53.586;10.040;2022-11-20T02:37:22;18.70;46.80
35680;DHT22;21803;53.586;10.040;2022-11-20T02:39:50;18.70;46.80
35680;DHT22;21803;53.586;10.040;2022-11-20T02:42:16;18.70;46.80
35680;DHT22;21803;53.586;10.040;2022-11-20T02:44:42;18.70;46.80
35680;DHT22;21803;53.586;10.040;2022-11-20T02:47:07;18.70;46.80
35680;DHT22;21803;53.586;10.040;2022-11-20T02:49:33;18.70;46.80
35680;DHT22;21803;53.586;10.040;2022-11-20T02:51:59;18.70;46.80
35680;DHT22;21803;53.586;10.040;2022-11-20T02:54:25;18.70;46.80
35680;DHT22;21803;53.586;10.040;2022-11-20T02:56:50;18.80;46.80
35680;DHT22;21803;53.586;10.040;2022-11-20T02:59:16;18.70;46.80
35680;DHT22;21803;53.586;10.040;2022-11-20T03:01:41;18.70;46.80
35680;DHT22;21803;53.586;10.040;2022-11-20T03:04:07;18.70;46.80
35680;DHT22;21803;53.586;10.040;2022-11-20T03:06:32;18.70;46.80
35680;DHT22;21803;53.586;10.040;2022-11-20T03:08:58;18.70;46.80
35680;DHT22;21803;53.586;10.040;2022-11-20T03:11:23;18.70;46.80
35680;DHT22;21803;53.586;10.040;2022-11-20T03:13:49;18.70;46.80
35680;DHT22;21803;53.586;10.040;2022-11-20T03:16:20;18.70;46.80
35680;DHT22;21803;53.586;10.040;2022-11-20T03:18:46;18.80;46.80
35680;DHT22;21803;53.586;10.040;2022-11-20T03:21:13;18.70;46.80
35680;DHT22;21803;53.586;10.040;2022-11-20T03:23:39;18.70;46.80
35680;DHT22;21803;53.586;10.040;2022-11-20T03:26:15;18.70;46.70
35680;DHT22;21803;53.586;10.040;2022-11-20T03:28:45;18.70;46.80
35680;DHT22;21803;53.586;10.040;2022-11-20T03:31:13;18.70;46.80
35680;DHT22;21803;53.586;10.040;2022-11-20T03:33:41;18.70;46.70
35680;DHT22;21803;53.586;10.040;2022-11-20T03:36:10;18.70;46.70
35680;DHT22;21803;53.586;10.040;2022-11-20T03:38:36;18.70;46.80
35680;DHT22;21803;53.586;10.040;2022-11-20T03:41:09;18.70;46.80
35680;DHT22;21803;53.586;10.040;2022-11-20T03:43:35;18.70;46.80
35680;DHT22;21803;53.586;10.040;2022-11-20T03:46:01;18.70;46.70
35680;DHT22;21803;53.586;10.040;2022-11-20T03:48:26;18.70;46.70
35680;DHT22;21803;53.586;10.040;2022-11-20T03:50:54;18.70;46.70
35680;DHT22;21803;53.586;10.040;2022-11-20T03:53:31;18.70;46.70
35680;DHT22;21803;53.586;10.040;2022-11-20T03:55:56;18.70;46.70
35680;DHT22;21803;53.586;10.040;2022-11-20T03:58:22;18.70;46.70
35680;DHT22;21803;53.586;10.040;2022-11-20T04:00:47;18.70;46.80
35680;DHT22;21803;53.586;10.040;2022-11-20T04:03:13;18.70;46.70
35680;DHT22;21803;53.586;10.040;2022-11-20T04:05:38;18.70;46.70
35680;DHT22;21803;53.586;10.040;2022-11-20T04:08:04;18.70;46.70
35680;DHT22;21803;53.586;10.040;2022-11-20T04:10:30;18.70;46.70
35680;DHT22;21803;53.586;10.040;2022-11-20T04:12:55;18.70;46.70
35680;DHT22;21803;53.586;10.040;2022-11-20T04:15:21;18.70;46.70
35680;DHT22;21803;53.586;10.040;2022-11-20T04:17:46;18.70;46.70
35680;DHT22;21803;53.586;10.040;2022-11-20T04:20:12;18.70;46.70
35680;DHT22;21803;53.586;10.040;2022-11-20T04:22:37;18.70;46.70
35680;DHT22;21803;53.586;10.040;2022-11-20T04:25:03;18.70;46.70
35680;DHT22;21803;53.586;10.040;2022-11-20T04:27:30;18.70;46.70
35680;DHT22;21803;53.586;10.040;2022-11-20T04:29:55;18.70;46.70
35680;DHT22;21803;53.586;10.040;2022-11-20T04:32:21;18.70;46.70
35680;DHT22;21803;53.586;10.040;2022-11-20T04:34:46;18.70;46.70
35680;DHT22;21803;53.586;10.040;2022-11-20T04:37:12;18.70;46.70
35680;DHT22;21803;53.586;10.040;2022-11-20T04:39:37;18.70;46.70
35680;DHT22;21803;53.586;10.040;2022-11-20T04:42:03;18.70;46.70
35680;DHT22;21803;53.586;10.040;2022-11-20T04:44:47;18.70;46.80
35680;DHT22;21803;53.586;10.040;2022-11-20T04:47:12;18.70;46.70
35680;DHT22;21803;53.586;10.040;2022-11-20T04:49:38;18.70;46.60
35680;DHT22;21803;53.586;10.040;2022-11-20T04:52:04;18.70;46.70
35680;DHT22;21803;53.586;10.040;2022-11-20T04:54:29;18.70;46.60
35680;DHT22;21803;53.586;10.040;2022-11-20T04:56:55;18.70;46.70
35680;DHT22;21803;53.586;10.040;2022-11-20T04:59:20;18.70;46.60
35680;DHT22;21803;53.586;10.040;2022-11-20T05:01:46;18.70;46.70
35680;DHT22;21803;53.586;10.040;2022-11-20T05:04:11;18.70;46.60
35680;DHT22;21803;53.586;10.040;2022-11-20T05:06:38;18.70;46.60
35680;DHT22;21803;53.586;10.040;2022-11-20T05:09:04;18.70;46.70
35680;DHT22;21803;53.586;10.040;2022-11-20T05:11:29;18.70;46.70
35680;DHT22;21803;53.586;10.040;2022-11-20T05:13:59;18.70;46.70
35680;DHT22;21803;53.586;10.040;2022-11-20T05:16:25;18.70;46.70
35680;DHT22;21803;53.586;10.040;2022-11-20T05:18:52;18.70;46.70
35680;DHT22;21803;53.586;10.040;2022-11-20T05:21:18;18.70;46.70
35680;DHT22;21803;53.586;10.040;2022-11-20T05:23:44;18.70;46.70
35680;DHT22;21803;53.586;10.040;2022-11-20T05:26:18;18.70;46.70
35680;DHT22;21803;53.586;10.040;2022-11-20T05:28:44;18.70;46.60
35680;DHT22;21803;53.586;10.040;2022-11-20T05:31:12;18.70;46.70
35680;DHT22;21803;53.586;10.040;2022-11-20T05:33:40;18.70;46.70
35680;DHT22;21803;53.586;10.040;2022-11-20T05:36:06;18.70;46.70
35680;DHT22;21803;53.586;10.040;2022-11-20T05:38:32;18.70;46.60
35680;DHT22;21803;53.586;10.040;2022-11-20T05:41:12;18.70;46.60
35680;DHT22;21803;53.586;10.040;2022-11-20T05:43:40;18.70;46.70
35680;DHT22;21803;53.586;10.040;2022-11-20T05:46:07;18.70;46.60
35680;DHT22;21803;53.586;10.040;2022-11-20T05:48:33;18.70;46.60
35680;DHT22;21803;53.586;10.040;2022-11-20T05:51:01;18.70;46.60
35680;DHT22;21803;53.586;10.040;2022-11-20T05:53:27;18.70;46.50
35680;DHT22;21803;53.586;10.040;2022-11-20T05:55:57;18.70;46.60
35680;DHT22;21803;53.586;10.040;2022-11-20T05:58:23;18.70;46.60
35680;DHT22;21803;53.586;10.040;2022-11-20T06:00:48;18.70;46.60
35680;DHT22;21803;53.586;10.040;2022-11-20T06:03:14;18.70;46.60
35680;DHT22;21803;53.586;10.040;2022-11-20T06:05:39;18.70;46.60
35680;DHT22;21803;53.586;10.040;2022-11-20T06:08:05;18.70;46.60
35680;DHT22;21803;53.586;10.040;2022-11-20T06:10:30;18.70;46.60
35680;DHT22;21803;53.586;10.040;2022-11-20T06:12:59;18.70;46.60
35680;DHT22;21803;53.586;10.040;2022-11-20T06:15:25;18.70;46.50
35680;DHT22;21803;53.586;10.040;2022-11-20T06:17:54;18.70;46.50
35680;DHT22;21803;53.586;10.040;2022-11-20T06:20:21;18.70;46.60
35680;DHT22;21803;53.586;10.040;2022-11-20T06:22:46;18.70;46.70
35680;DHT22;21803;53.586;10.040;2022-11-20T06:25:12;18.70;46.60
35680;DHT22;21803;53.586;10.040;2022-11-20T06:27:37;18.70;46.60
35680;DHT22;21803;53.586;10.040;2022-11-20T06:30:03;18.70;46.60
35680;DHT22;21803;53.586;10.040;2022-11-20T06:32:29;18.70;46.50
35680;DHT22;21803;53.586;10.040;2022-11-20T06:34:55;18.70;46.50
35680;DHT22;21803;53.586;10.040;2022-11-20T06:37:20;18.70;46.50
35680;DHT22;21803;53.586;10.040;2022-11-20T06:39:46;18.70;46.50
35680;DHT22;21803;53.586;10.040;2022-11-20T06:42:11;18.70;46.50
35680;DHT22;21803;53.586;10.040;2022-11-20T06:44:36;18.70;46.50
35680;DHT22;21803;53.586;10.040;2022-11-20T06:47:02;18.70;46.50
35680;DHT22;21803;53.586;10.040;2022-11-20T06:49:27;18.70;46.50
35680;DHT22;21803;53.586;10.040;2022-11-20T06:51:53;18.70;46.50
35680;DHT22;21803;53.586;10.040;2022-11-20T06:54:18;18.70;46.50
35680;DHT22;21803;53.586;10.040;2022-11-20T06:56:47;18.70;46.50
35680;DHT22;21803;53.586;10.040;2022-11-20T06:59:13;18.70;46.50
35680;DHT22;21803;53.586;10.040;2022-11-20T07:01:38;18.70;46.50
35680;DHT22;21803;53.586;10.040;2022-11-20T07:04:04;18.70;46.50
35680;DHT22;21803;53.586;10.040;2022-11-20T07:06:30;18.70;46.50
35680;DHT22;21803;53.586;10.040;2022-11-20T07:08:55;18.70;46.50
35680;DHT22;21803;53.586;10.040;2022-11-20T07:11:21;18.70;46.50
35680;DHT22;21803;53.586;10.040;2022-11-20T07:13:46;18.70;46.50
35680;DHT22;21803;53.586;10.040;2022-11-20T07:16:12;18.60;46.40
35680;DHT22;21803;53.586;10.040;2022-11-20T07:18:37;18.70;46.50
35680;DHT22;21803;53.586;10.040;2022-11-20T07:21:05;18.70;46.50
35680;DHT22;21803;53.586;10.040;2022-11-20T07:23:31;18.70;46.50
35680;DHT22;21803;53.586;10.040;2022-11-20T07:25:56;18.70;46.40
35680;DHT22;21803;53.586;10.040;2022-11-20T07:28:22;18.70;46.50
35680;DHT22;21803;53.586;10.040;2022-11-20T07:30:52;18.70;46.50
35680;DHT22;21803;53.586;10.040;2022-11-20T07:33:18;18.70;46.50
35680;DHT22;21803;53.586;10.040;2022-11-20T07:35:44;18.70;46.40
35680;DHT22;21803;53.586;10.040;2022-11-20T07:38:10;18.70;46.40
35680;DHT22;21803;53.586;10.040;2022-11-20T07:40:35;18.70;46.50
35680;DHT22;21803;53.586;10.040;2022-11-20T07:43:01;18.70;46.40
35680;DHT22;21803;53.586;10.040;2022-11-20T07:45:26;18.70;46.40
35680;DHT22;21803;53.586;10.040;2022-11-20T07:47:52;18.70;46.40
35680;DHT22;21803;53.586;10.040;2022-11-20T07:50:18;18.70;46.40
35680;DHT22;21803;53.586;10.040;2022-11-20T07:52:44;18.70;46.40
35680;DHT22;21803;53.586;10.040;2022-11-20T07:55:10;18.70;46.40
35680;DHT22;21803;53.586;10.040;2022-11-20T07:57:36;18.70;46.50
35680;DHT22;21803;53.586;10.040;2022-11-20T08:00:03;18.70;46.50
35680;DHT22;21803;53.586;10.040;2022-11-20T08:02:29;18.70;46.40
35680;DHT22;21803;53.586;10.040;2022-11-20T08:04:55;18.70;46.40
35680;DHT22;21803;53.586;10.040;2022-11-20T08:07:20;18.70;46.40
35680;DHT22;21803;53.586;10.040;2022-11-20T08:09:46;18.70;46.40
35680;DHT22;21803;53.586;10.040;2022-11-20T08:12:19;18.60;46.30
35680;DHT22;21803;53.586;10.040;2022-11-20T08:15:04;18.70;46.40
35680;DHT22;21803;53.586;10.040;2022-11-20T08:17:30;18.70;46.40
35680;DHT22;21803;53.586;10.040;2022-11-20T08:19:55;18.60;46.30
35680;DHT22;21803;53.586;10.040;2022-11-20T08:22:21;18.70;46.40
35680;DHT22;21803;53.586;10.040;2022-11-20T08:24:47;18.70;46.40
35680;DHT22;21803;53.586;10.040;2022-11-20T08:27:13;18.60;46.30
35680;DHT22;21803;53.586;10.040;2022-11-20T08:29:38;18.70;46.30
35680;DHT22;21803;53.586;10.040;2022-11-20T08:32:04;18.70;46.40
35680;DHT22;21803;53.586;10.040;2022-11-20T08:34:29;18.70;46.40
35680;DHT22;21803;53.586;10.040;2022-11-20T08:36:55;18.70;46.40
35680;DHT22;21803;53.586;10.040;2022-11-20T08:39:20;18.70;46.30
35680;DHT22;21803;53.586;10.040;2022-11-20T08:41:46;18.60;46.30
35680;DHT22;21803;53.586;10.040;2022-11-20T08:44:11;18.70;46.30
35680;DHT22;21803;53.586;10.040;2022-11-20T08:46:39;18.70;46.30
35680;DHT22;21803;53.586;10.040;2022-11-20T08:49:08;18.70;46.40
35680;DHT22;21803;53.586;10.040;2022-11-20T08:51:34;18.70;46.40
35680;DHT22;21803;53.586;10.040;2022-11-20T08:54:00;18.70;46.30
35680;DHT22;21803;53.586;10.040;2022-11-20T08:56:25;18.70;46.30
35680;DHT22;21803;53.586;10.040;2022-11-20T08:58:51;18.70;46.30
35680;DHT22;21803;53.586;10.040;2022-11-20T09:01:18;18.70;46.40
35680;DHT22;21803;53.586;10.040;2022-11-20T09:03:44;18.70;46.40
35680;DHT22;21803;53.586;10.040;2022-11-20T09:06:09;18.70;46.30
35680;DHT22;21803;53.586;10.040;2022-11-20T09:08:35;18.60;46.20
35680;DHT22;21803;53.586;10.040;2022-11-20T09:11:02;18.70;46.20
35680;DHT22;21803;53.586;10.040;2022-11-20T09:13:28;18.70;46.40
35680;DHT22;21803;53.586;10.040;2022-11-20T09:15:59;18.70;46.40
35680;DHT22;21803;53.586;10.040;2022-11-20T09:18:26;18.70;46.30
35680;DHT22;21803;53.586;10.040;2022-11-20T09:20:56;18.70;46.30
35680;DHT22;21803;53.586;10.040;2022-11-20T09:23:23;18.70;46.30
35680;DHT22;21803;53.586;10.040;2022-11-20T09:25:48;18.70;46.20
35680;DHT22;21803;53.586;10.040;2022-11-20T09:28:13;18.70;46.20
35680;DHT22;21803;53.586;10.040;2022-11-20T09:30:39;18.70;46.20
35680;DHT22;21803;53.586;10.040;2022-11-20T09:33:05;18.70;46.20
35680;DHT22;21803;53.586;10.040;2022-11-20T09:35:31;18.60;46.20
35680;DHT22;21803;53.586;10.040;2022-11-20T09:37:57;18.60;46.20
35680;DHT22;21803;53.586;10.040;2022-11-20T09:40:25;18.70;46.20
35680;DHT22;21803;53.586;10.040;2022-11-20T09:42:56;18.60;46.20
35680;DHT22;21803;53.586;10.040;2022-11-20T09:45:50;18.70;46.20
35680;DHT22;21803;53.586;10.040;2022-11-20T09:51:16;18.70;46.30
35680;DHT22;21803;53.586;10.040;2022-11-20T09:54:18;18.70;46.20
35680;DHT22;21803;53.586;10.040;2022-11-20T09:56:49;18.70;46.20
35680;DHT22;21803;53.586;10.040;2022-11-20T09:59:29;18.70;46.20
35680;DHT22;21803;53.586;10.040;2022-11-20T10:01:56;18.70;46.20
35680;DHT22;21803;53.586;10.040;2022-11-20T10:04:22;18.70;46.20
35680;DHT22;21803;53.586;10.040;2022-11-20T10:07:13;18.70;46.20
35680;DHT22;21803;53.586;10.040;2022-11-20T10:09:49;18.70;46.30
35680;DHT22;21803;53.586;10.040;2022-11-20T10:21:39;18.70;46.20
35680;DHT22;21803;53.586;10.040;2022-11-20T10:24:14;18.70;46.30
35680;DHT22;21803;53.586;10.040;2022-11-20T10:29:33;18.70;46.10
35680;DHT22;21803;53.586;10.040;2022-11-20T10:32:07;18.70;46.30
35680;DHT22;21803;53.586;10.040;2022-11-20T10:34:52;18.70;46.20
35680;DHT22;21803;53.586;10.040;2022-11-20T10:37:25;18.70;46.20
35680;DHT22;21803;53.586;10.040;2022-11-20T10:40:03;18.70;46.20
35680;DHT22;21803;53.586;10.040;2022-11-20T10:42:46;18.70;46.30
35680;DHT22;21803;53.586;10.040;2022-11-20T10:47:46;18.60;46.20
35680;DHT22;21803;53.586;10.040;2022-11-20T10:50:16;18.50;46.10
35680;DHT22;21803;53.586;10.040;2022-11-20T10:53:03;18.70;46.30
35680;DHT22;21803;53.586;10.040;2022-11-20T10:55:45;18.70;46.20
35680;DHT22;21803;53.586;10.040;2022-11-20T10:58:27;19.60;46.60
35680;DHT22;21803;53.586;10.040;2022-11-20T11:01:13;18.70;46.30
35680;DHT22;21803;53.586;10.040;2022-11-20T11:03:40;18.70;46.20
35680;DHT22;21803;53.586;10.040;2022-11-20T11:06:37;18.70;46.20
35680;DHT22;21803;53.586;10.040;2022-11-20T11:09:16;18.70;46.20
35680;DHT22;21803;53.586;10.040;2022-11-20T11:11:42;18.70;46.10
35680;DHT22;21803;53.586;10.040;2022-11-20T11:14:15;18.70;46.10
35680;DHT22;21803;53.586;10.040;2022-11-20T11:16:57;18.70;46.10
35680;DHT22;21803;53.586;10.040;2022-11-20T11:19:23;18.70;46.20
35680;DHT22;21803;53.586;10.040;2022-11-20T11:21:53;18.60;46.10
35680;DHT22;21803;53.586;10.040;2022-11-20T11:27:13;18.70;46.20
35680;DHT22;21803;53.586;10.040;2022-11-20T11:29:42;18.60;46.30
35680;DHT22;21803;53.586;10.040;2022-11-20T11:32:15;18.70;46.30
35680;DHT22;21803;53.586;10.040;2022-11-20T11:34:42;18.70;46.30
35680;DHT22;21803;53.586;10.040;2022-11-20T11:37:17;18.70;46.20
35680;DHT22;21803;53.586;10.040;2022-11-20T11:39:44;18.70;46.30
35680;DHT22;21803;53.586;10.040;2022-11-20T11:42:17;18.70;46.20
35680;DHT22;21803;53.586;10.040;2022-11-20T11:44:45;18.70;46.30
35680;DHT22;21803;53.586;10.040;2022-11-20T11:47:33;18.70;46.20
35680;DHT22;21803;53.586;10.040;2022-11-20T11:55:35;18.70;46.10
35680;DHT22;21803;53.586;10.040;2022-11-20T11:58:09;18.70;46.20
35680;DHT22;21803;53.586;10.040;2022-11-20T12:00:39;18.60;46.30
35680;DHT22;21803;53.586;10.040;2022-11-20T12:03:17;18.70;46.30
35680;DHT22;21803;53.586;10.040;2022-11-20T12:05:50;18.70;46.20
35680;DHT22;21803;53.586;10.040;2022-11-20T12:08:37;18.60;46.30
35680;DHT22;21803;53.586;10.040;2022-11-20T12:11:33;18.70;46.40
35680;DHT22;21803;53.586;10.040;2022-11-20T12:14:11;18.70;46.40
35680;DHT22;21803;53.586;10.040;2022-11-20T12:16:40;18.70;46.30
35680;DHT22;21803;53.586;10.040;2022-11-20T12:19:12;18.60;46.20
35680;DHT22;21803;53.586;10.040;2022-11-20T12:27:47;18.60;46.30
35680;DHT22;21803;53.586;10.040;2022-11-20T12:30:16;18.70;46.50
35680;DHT22;21803;53.586;10.040;2022-11-20T12:35:51;18.60;46.30
35680;DHT22;21803;53.586;10.040;2022-11-20T12:41:14;18.60;46.20
35680;DHT22;21803;53.586;10.040;2022-11-20T12:50:08;18.70;46.30
35680;DHT22;21803;53.586;10.040;2022-11-20T13:01:32;18.60;46.30
35680;DHT22;21803;53.586;10.040;2022-11-20T13:07:11;18.60;46.50
35680;DHT22;21803;53.586;10.040;2022-11-20T13:09:43;18.60;46.30
35680;DHT22;21803;53.586;10.040;2022-11-20T13:12:22;18.60;46.30
35680;DHT22;21803;53.586;10.040;2022-11-20T13:17:55;18.60;46.40
35680;DHT22;21803;53.586;10.040;2022-11-20T13:20:21;18.60;46.50
35680;DHT22;21803;53.586;10.040;2022-11-20T13:22:48;18.60;46.40
35680;DHT22;21803;53.586;10.040;2022-11-20T13:25:35;18.60;46.60
35680;DHT22;21803;53.586;10.040;2022-11-20T13:28:05;18.70;46.60
35680;DHT22;21803;53.586;10.040;2022-11-20T13:30:50;18.60;46.70
35680;DHT22;21803;53.586;10.040;2022-11-20T13:36:47;18.60;46.60
35680;DHT22;21803;53.586;10.040;2022-11-20T13:38:50;18.60;46.60
35680;DHT22;21803;53.586;10.040;2022-11-20T13:41:28;18.70;46.70
35680;DHT22;21803;53.586;10.040;2022-11-20T13:43:59;18.60;46.70
35680;DHT22;21803;53.586;10.040;2022-11-20T13:46:44;18.60;46.70
35680;DHT22;21803;53.586;10.040;2022-11-20T13:52:27;18.70;46.80
35680;DHT22;21803;53.586;10.040;2022-11-20T14:00:21;18.60;46.70
35680;DHT22;21803;53.586;10.040;2022-11-20T14:05:34;18.60;46.80
35680;DHT22;21803;53.586;10.040;2022-11-20T14:08:03;18.70;46.80
35680;DHT22;21803;53.586;10.040;2022-11-20T14:10:31;18.60;46.80
35680;DHT22;21803;53.586;10.040;2022-11-20T14:12:57;18.60;46.90
35680;DHT22;21803;53.586;10.040;2022-11-20T14:15:27;18.60;46.90
35680;DHT22;21803;53.586;10.040;2022-11-20T14:17:52;18.60;46.90
35680;DHT22;21803;53.586;10.040;2022-11-20T14:20:18;18.60;46.90
35680;DHT22;21803;53.586;10.040;2022-11-20T14:22:53;18.60;46.80
35680;DHT22;21803;53.586;10.040;2022-11-20T14:25:19;18.70;46.90
35680;DHT22;21803;53.586;10.040;2022-11-20T14:27:56;18.60;46.90
35680;DHT22;21803;53.586;10.040;2022-11-20T14:30:27;18.60;46.80
35680;DHT22;21803;53.586;10.040;2022-11-20T14:32:57;18.60;47.50
35680;DHT22;21803;53.586;10.040;2022-11-20T14:35:31;18.60;46.90
35680;DHT22;21803;53.586;10.040;2022-11-20T14:38:00;18.70;47.00
35680;DHT22;21803;53.586;10.040;2022-11-20T14:40:32;18.60;46.90
35680;DHT22;21803;53.586;10.040;2022-11-20T14:42:58;18.60;46.90
35680;DHT22;21803;53.586;10.040;2022-11-20T14:45:26;18.60;46.90
35680;DHT22;21803;53.586;10.040;2022-11-20T14:47:54;18.60;46.90
35680;DHT22;21803;53.586;10.040;2022-11-20T14:52:59;18.60;46.90
35680;DHT22;21803;53.586;10.040;2022-11-20T14:57:58;18.60;46.90
35680;DHT22;21803;53.586;10.040;2022-11-20T15:00:24;18.60;47.00
35680;DHT22;21803;53.586;10.040;2022-11-20T15:02:51;18.60;46.90
35680;DHT22;21803;53.586;10.040;2022-11-20T15:05:23;18.60;46.90
35680;DHT22;21803;53.586;10.040;2022-11-20T15:08:08;18.60;46.90
35680;DHT22;21803;53.586;10.040;2022-11-20T15:10:34;18.60;46.90
35680;DHT22;21803;53.586;10.040;2022-11-20T15:13:03;18.60;46.90
35680;DHT22;21803;53.586;10.040;2022-11-20T15:15:39;18.60;46.90
35680;DHT22;21803;53.586;10.040;2022-11-20T15:20:56;18.60;47.00
35680;DHT22;21803;53.586;10.040;2022-11-20T15:23:23;18.60;46.90
35680;DHT22;21803;53.586;10.040;2022-11-20T15:25:49;18.60;46.90
35680;DHT22;21803;53.586;10.040;2022-11-20T15:28:21;18.60;47.00
35680;DHT22;21803;53.586;10.040;2022-11-20T15:30:48;18.60;46.90
35680;DHT22;21803;53.586;10.040;2022-11-20T15:33:15;18.60;46.90
35680;DHT22;21803;53.586;10.040;2022-11-20T15:35:41;18.60;46.90
35680;DHT22;21803;53.586;10.040;2022-11-20T15:38:07;18.60;46.90
35680;DHT22;21803;53.586;10.040;2022-11-20T15:40:32;18.60;47.00
35680;DHT22;21803;53.586;10.040;2022-11-20T15:42:58;18.60;46.90
35680;DHT22;21803;53.586;10.040;2022-11-20T15:45:44;18.60;46.90
35680;DHT22;21803;53.586;10.040;2022-11-20T15:48:13;18.60;46.90
35680;DHT22;21803;53.586;10.040;2022-11-20T15:51:49;18.60;46.80
35680;DHT22;21803;53.586;10.040;2022-11-20T15:53:44;18.60;46.80
35680;DHT22;21803;53.586;10.040;2022-11-20T15:56:12;18.60;46.90
35680;DHT22;21803;53.586;10.040;2022-11-20T15:58:38;18.60;46.80
35680;DHT22;21803;53.586;10.040;2022-11-20T16:01:04;18.60;46.80
35680;DHT22;21803;53.586;10.040;2022-11-20T16:03:29;18.60;46.90
35680;DHT22;21803;53.586;10.040;2022-11-20T16:05:55;18.60;46.80
35680;DHT22;21803;53.586;10.040;2022-11-20T16:08:21;18.60;46.80
35680;DHT22;21803;53.586;10.040;2022-11-20T16:10:46;18.60;46.80
35680;DHT22;21803;53.586;10.040;2022-11-20T16:13:14;18.60;46.80
35680;DHT22;21803;53.586;10.040;2022-11-20T16:16:01;18.60;46.70
35680;DHT22;21803;53.586;10.040;2022-11-20T16:18:27;18.60;46.70
35680;DHT22;21803;53.586;10.040;2022-11-20T16:20:54;18.60;46.80
35680;DHT22;21803;53.586;10.040;2022-11-20T16:23:20;18.60;46.70
35680;DHT22;21803;53.586;10.040;2022-11-20T16:25:46;18.60;46.70
35680;DHT22;21803;53.586;10.040;2022-11-20T16:28:13;18.60;46.90
35680;DHT22;21803;53.586;10.040;2022-11-20T16:30:38;18.60;46.80
35680;DHT22;21803;53.586;10.040;2022-11-20T16:33:09;18.60;46.80
35680;DHT22;21803;53.586;10.040;2022-11-20T16:35:35;18.60;46.80
35680;DHT22;21803;53.586;10.040;2022-11-20T16:38:01;18.60;47.40
35680;DHT22;21803;53.586;10.040;2022-11-20T16:40:26;18.60;46.70
35680;DHT22;21803;53.586;10.040;2022-11-20T16:42:52;18.60;46.70
35680;DHT22;21803;53.586;10.040;2022-11-20T16:45:18;18.60;46.70
35680;DHT22;21803;53.586;10.040;2022-11-20T16:47:43;18.60;46.80